Pagina principale
METAR-TAF:

METAR-TAF

Aeroporti :

Caracas, Venezuela

Aeroporto Internazionale Simón Bolívar

latitudine: 10-36N, longitudine: 066-59W, altezza: 43 m

Osservazione

Il bollettino è stato emesso 12 minuti fa, alle 01:00 UTC
Vento 5 kt da est
Temperature 26°C
Umidità 79%
Pressione 1006 hPa
Visibilità 10 km o più
Nuvoloso ad un'altezza di 1600 ft

METAR: SVMI 240100Z 09005KT 9999 BKN016 26/22 Q1006

Ora: 21:12 (01:12 UTC)

Previsione

Il bollettino è stato emesso 3 ore e 12 minuti fa, alle 22:00 UTC
Previsione valida dal 24 alle 00 UTC al 25 alle 00 UTC
Vento 9 kt da est
Visibilità 10 km o più
Poco nuvoloso ad un'altezza di 1300 ft
Evoluzione graduale
dal 24 alle 01 UTC al 24 alle 05 UTC
Vento 10 kt da est
Nubi sparse ad un'altezza di 1600 ft

TAF: SVMI 232200Z 2400/2500 09009KT 9999 FEW013 TX32/18Z TN21/09Z BECMG 2401/2405 09010KT SCT016

Osservazioni e previsioni meteorologiche di più di 4000 aeroporti (messaggi METAR e TAF).

Le stazioni disponibili sono rappresentate dai dischi gialli e rossi sulla carta.

Puntare il mouse per vedere il nome della stazione.

Clicca sopra per visualizzare le osservazioni e previsioni meteorologiche.

Per cambiare la mappa : fare clic sui pulsanti verdi con una croce nera per ingrandire, il pulsante verde con un trattino per diminuire, o sulla freccia verde per le mappe adiacenti.


METAR-TAF: